Smithsburg, MD (21783)

2:46 PM EST on December 28, 2014 (GMT -0500)
APRSWXNET Smithsburg MD US | Change Station
CLOSE
Current Station
Personal Weather Station
Location: Cavetown, MD
Elevation: 698 ft
Nearby Weather Stations

Elev 698 ft 39.63 °N, 77.60 °W | Updated 46 minutes ago

Overcast
Overcast
53 °F
Feels Like 53 °F
N
6
Wind Variable Wind from NW
Gusts 0.0 mph

Today
High -- | Low -- °F
--% Chance of Precip.
Yesterday
High -- | Low -- °F
Precip. -- in
7:29 AM 4:53 PM
Waxing Crescent, 50% visible
Pressure 29.97 in
Visibility 10.0 miles
Clouds Overcast 3600 ft
Dew Point 42 °F
Humidity 67%
Rainfall -999.00 in
Snow Depth Not available.
UV 1 out of 12
Pollen .10 out of 12
Air Quality Not available.
Flu Activity Not available.
METAR KHGR 281853Z 32011KT 10SM OVC036 11/06 A2994 RMK AO2 SLP149 T01110056

More Conditions Fewer Conditions

Pressure 29.97 in
Visibility 10.0 miles
Clouds Overcast 3600 ft
Dew Point 42 °F
Humidity 67%
Rainfall -999.00 in
Snow Depth Not available.
UV 1 out of 12
Pollen .10 out of 12
Air Quality Not available.
Flu Activity Not available.
METAR KHGR 281853Z 32011KT 10SM OVC036 11/06 A2994 RMK AO2 SLP149 T01110056

More Conditions Fewer Conditions

10-Day Weather Forecast

Almanac

Astronomy

Dec. 28, 2014 Rise Set
Actual Time
Civil Twilight
Nautical Twilight
Astronomical Twilight
Moon
Length of Visible Light
Length of Day
Tomorrow will be .
, % of the Moon is Illuminated

Today's Extremes

State Highs State Lows

Community

WunderPhotos

Upload Photos

1,781,402 photos uploaded!

WunderBlogs® & News

Nearby

Air Quality

  Air Quality AQ Index Pollutant
Not available.

Snow Depth

Station Depth Elevation

Earthquake Activity

City Distance Mag. Time & Date
Minimum magnitude displayed is 2.5.

Coastal Water Temperatures

Place Temperature

Nearby Weather Stations